createdAt,value
2019-05-07T00:01:23.813Z,95672.00
2019-05-07T00:03:54.287Z,95671.00
2019-05-07T00:06:24.782Z,95674.00
2019-05-07T00:08:55.343Z,95673.00
2019-05-07T00:11:26.001Z,95676.00
2019-05-07T00:13:56.490Z,95672.00
2019-05-07T00:16:27.217Z,95670.00
2019-05-07T00:18:57.792Z,95681.00
2019-05-07T00:21:28.283Z,95672.00
2019-05-07T00:24:02.320Z,95672.00
2019-05-07T00:26:32.890Z,95682.00
2019-05-07T00:29:03.343Z,95667.00
2019-05-07T00:31:33.810Z,95667.00
2019-05-07T00:34:04.276Z,95673.00
2019-05-07T00:36:46.181Z,95675.00
2019-05-07T00:39:38.517Z,95674.00
2019-05-07T00:42:18.586Z,95668.00
2019-05-07T00:45:17.853Z,95661.00
2019-05-07T00:47:42.735Z,95659.00
2019-05-07T00:50:19.339Z,95664.00
2019-05-07T00:52:49.844Z,95660.00
2019-05-07T00:55:22.653Z,95659.00
2019-05-07T00:57:52.710Z,95657.00
2019-05-07T01:00:23.295Z,95655.00
2019-05-07T01:02:53.803Z,95661.00
2019-05-07T01:05:24.335Z,95662.00
2019-05-07T01:07:54.859Z,95665.00
2019-05-07T01:10:25.381Z,95657.00
2019-05-07T01:12:58.899Z,95667.00
2019-05-07T01:15:31.575Z,95669.00
2019-05-07T01:18:02.698Z,95669.00
2019-05-07T01:20:33.047Z,95672.00
2019-05-07T01:23:03.639Z,95664.00
2019-05-07T01:25:34.096Z,95665.00
2019-05-07T01:28:04.630Z,95662.00
2019-05-07T01:30:35.063Z,95660.00
2019-05-07T01:33:15.930Z,95660.00
2019-05-07T01:36:07.249Z,95657.00
2019-05-07T01:38:37.388Z,95665.00
2019-05-07T01:41:12.343Z,95650.00
2019-05-07T01:43:42.888Z,95651.00
2019-05-07T01:46:13.553Z,95656.00
2019-05-07T01:48:44.413Z,95663.00
2019-05-07T01:51:14.859Z,95657.00
2019-05-07T01:53:45.417Z,95657.00
2019-05-07T01:56:15.904Z,95666.00
2019-05-07T01:58:47.662Z,95649.00
2019-05-07T02:01:18.271Z,95654.00
2019-05-07T02:04:16.747Z,95662.00
2019-05-07T02:07:06.194Z,95652.00
2019-05-07T02:09:47.446Z,95657.00
2019-05-07T02:12:22.216Z,95651.00
2019-05-07T02:14:53.079Z,95663.00
2019-05-07T02:17:23.674Z,95650.00
2019-05-07T02:19:54.153Z,95657.00
2019-05-07T02:22:24.665Z,95658.00
2019-05-07T02:24:55.264Z,95646.00
2019-05-07T02:27:25.867Z,95650.00
2019-05-07T02:29:56.322Z,95650.00
2019-05-07T02:32:26.787Z,95647.00
2019-05-07T02:34:57.281Z,95647.00
2019-05-07T02:37:48.682Z,95641.00
2019-05-07T02:40:27.849Z,95645.00
2019-05-07T02:42:58.319Z,95640.00
2019-05-07T02:45:48.867Z,95630.00
2019-05-07T02:48:23.680Z,95635.00
2019-05-07T02:51:04.147Z,95638.00
2019-05-07T02:53:59.062Z,95623.00
2019-05-07T02:56:29.491Z,95622.00
2019-05-07T02:59:00.054Z,95628.00
2019-05-07T03:01:33.291Z,95620.00
2019-05-07T03:04:03.612Z,95610.00
2019-05-07T03:06:34.433Z,95630.00
2019-05-07T03:09:06.430Z,95628.00
2019-05-07T03:11:39.043Z,95621.00
2019-05-07T03:14:09.779Z,95621.00
2019-05-07T03:16:47.610Z,95617.00
2019-05-07T03:19:13.578Z,95611.00
2019-05-07T03:21:58.272Z,95617.00
2019-05-07T03:24:43.173Z,95619.00
2019-05-07T03:27:14.154Z,95624.00
2019-05-07T03:29:53.488Z,95612.00
2019-05-07T03:32:49.144Z,95625.00
2019-05-07T03:35:46.405Z,95623.00
2019-05-07T03:38:17.063Z,95620.00
2019-05-07T03:40:47.679Z,95622.00
2019-05-07T03:43:18.404Z,95627.00
2019-05-07T03:46:07.955Z,95627.00
2019-05-07T03:48:39.417Z,95621.00
2019-05-07T03:51:12.942Z,95615.00
2019-05-07T03:53:43.548Z,95627.00
2019-05-07T03:56:14.493Z,95618.00
2019-05-07T03:58:45.006Z,95612.00
2019-05-07T04:01:15.515Z,95613.00
2019-05-07T04:03:46.043Z,95611.00
2019-05-07T04:06:16.721Z,95611.00
2019-05-07T04:08:49.463Z,95617.00
2019-05-07T04:11:22.792Z,95611.00
2019-05-07T04:13:53.481Z,95619.00
2019-05-07T04:16:24.434Z,95619.00
2019-05-07T04:18:54.896Z,95617.00
2019-05-07T04:21:25.377Z,95611.00
2019-05-07T04:24:13.722Z,95608.00
2019-05-07T04:26:47.686Z,95608.00
2019-05-07T04:29:18.122Z,95613.00
2019-05-07T04:31:48.666Z,95616.00
2019-05-07T04:34:24.670Z,95629.00
2019-05-07T04:36:55.179Z,95613.00
2019-05-07T04:39:25.690Z,95620.00
2019-05-07T04:41:56.253Z,95621.00
2019-05-07T04:44:26.728Z,95615.00
2019-05-07T04:46:57.297Z,95617.00
2019-05-07T04:49:27.803Z,95617.00
2019-05-07T04:52:06.473Z,95615.00
2019-05-07T04:54:36.984Z,95614.00
2019-05-07T04:57:25.683Z,95613.00
2019-05-07T04:59:58.487Z,95618.00
2019-05-07T05:02:53.064Z,95625.00
2019-05-07T05:05:25.633Z,95612.00
2019-05-07T05:07:58.406Z,95609.00
2019-05-07T05:10:30.409Z,95617.00
2019-05-07T05:13:03.211Z,95618.00
2019-05-07T05:15:34.035Z,95622.00
2019-05-07T05:18:04.539Z,95619.00
2019-05-07T05:20:55.191Z,95626.00
2019-05-07T05:23:52.422Z,95626.00
2019-05-07T05:26:22.906Z,95636.00
2019-05-07T05:28:55.707Z,95636.00
2019-05-07T05:31:27.222Z,95635.00
2019-05-07T05:33:57.850Z,95626.00
2019-05-07T05:36:29.573Z,95632.00
2019-05-07T05:39:02.334Z,95632.00
2019-05-07T05:41:35.180Z,95639.00
2019-05-07T05:44:15.698Z,95642.00
2019-05-07T05:46:46.532Z,95637.00
2019-05-07T05:49:17.695Z,95638.00
2019-05-07T05:51:58.083Z,95636.00
2019-05-07T05:54:36.658Z,95640.00
2019-05-07T05:57:25.379Z,95632.00
2019-05-07T06:00:13.627Z,95632.00
2019-05-07T06:03:22.733Z,95635.00
2019-05-07T06:06:12.767Z,95633.00
2019-05-07T06:08:52.503Z,95647.00
2019-05-07T06:11:36.554Z,95639.00
2019-05-07T06:14:33.042Z,95640.00
2019-05-07T06:17:22.738Z,95643.00
2019-05-07T06:20:12.673Z,95634.00
2019-05-07T06:23:01.987Z,95637.00
2019-05-07T06:25:33.428Z,95636.00
2019-05-07T06:28:04.084Z,95637.00
2019-05-07T06:30:34.530Z,95646.00
2019-05-07T06:33:05.160Z,95641.00
2019-05-07T06:35:35.620Z,95643.00
2019-05-07T06:38:08.431Z,95640.00
2019-05-07T06:40:56.683Z,95638.00
2019-05-07T06:43:35.536Z,95632.00
2019-05-07T06:46:06.576Z,95633.00
2019-05-07T06:48:42.393Z,95641.00
2019-05-07T06:51:09.589Z,95631.00
2019-05-07T06:53:42.539Z,95641.00
2019-05-07T06:56:13.051Z,95633.00
2019-05-07T06:59:08.572Z,95635.00
2019-05-07T07:02:02.331Z,95630.00
2019-05-07T07:04:44.196Z,95634.00
2019-05-07T07:07:37.031Z,95631.00
2019-05-07T07:10:32.258Z,95625.00
2019-05-07T07:13:02.531Z,95629.00
2019-05-07T07:15:33.095Z,95625.00
2019-05-07T07:18:03.595Z,95617.00
2019-05-07T07:20:34.135Z,95627.00
2019-05-07T07:23:04.828Z,95611.00
2019-05-07T07:25:35.615Z,95612.00
2019-05-07T07:28:07.368Z,95612.00
2019-05-07T07:30:54.247Z,95609.00
2019-05-07T07:33:27.253Z,95601.00
2019-05-07T07:35:57.863Z,95608.00
2019-05-07T07:38:33.999Z,95605.00
2019-05-07T07:41:13.712Z,95605.00
2019-05-07T07:43:44.333Z,95611.00
2019-05-07T07:46:16.582Z,95609.00
2019-05-07T07:48:47.334Z,95603.00
2019-05-07T07:51:34.281Z,95608.00
2019-05-07T07:53:53.127Z,95603.00
2019-05-07T07:56:49.941Z,95607.00
2019-05-07T07:59:38.263Z,95604.00
2019-05-07T08:02:17.022Z,95600.00
2019-05-07T08:04:48.770Z,95595.00
2019-05-07T08:07:19.526Z,95586.00
2019-05-07T08:09:52.016Z,95588.00
2019-05-07T08:12:22.748Z,95591.00
2019-05-07T08:14:53.563Z,95585.00
2019-05-07T08:17:24.109Z,95589.00
2019-05-07T08:19:54.615Z,95579.00
2019-05-07T08:22:25.489Z,95585.00
2019-05-07T08:24:56.027Z,95577.00
2019-05-07T08:27:26.686Z,95566.00
2019-05-07T08:29:57.593Z,95574.00
2019-05-07T08:33:02.302Z,95570.00
2019-05-07T08:35:42.285Z,95575.00
2019-05-07T08:38:12.940Z,95567.00
2019-05-07T08:40:43.910Z,95557.00
2019-05-07T08:43:14.400Z,95565.00
2019-05-07T08:46:13.026Z,95561.00
2019-05-07T08:48:48.884Z,95554.00
2019-05-07T08:51:19.425Z,95557.00
2019-05-07T08:54:05.319Z,95553.00
2019-05-07T08:56:37.501Z,95559.00
2019-05-07T08:59:08.676Z,95556.00
2019-05-07T09:01:43.273Z,95551.00
2019-05-07T09:04:14.200Z,95537.00
2019-05-07T09:06:44.712Z,95552.00
2019-05-07T09:09:15.771Z,95556.00
2019-05-07T09:11:46.293Z,95555.00
2019-05-07T09:14:16.796Z,95553.00
2019-05-07T09:16:47.800Z,95553.00
2019-05-07T09:19:21.667Z,95548.00
2019-05-07T09:21:52.784Z,95542.00
2019-05-07T09:24:23.660Z,95541.00
2019-05-07T09:27:02.757Z,95542.00
2019-05-07T09:29:45.162Z,95538.00
2019-05-07T09:32:22.771Z,95534.00
2019-05-07T09:34:53.473Z,95525.00
2019-05-07T09:37:27.359Z,95518.00
2019-05-07T09:39:57.960Z,95515.00
2019-05-07T09:42:28.904Z,95516.00
2019-05-07T09:45:03.775Z,95508.00
2019-05-07T09:47:34.591Z,95511.00
2019-05-07T09:50:09.059Z,95511.00
2019-05-07T09:52:42.932Z,95511.00
2019-05-07T09:55:17.216Z,95506.00
2019-05-07T09:57:46.104Z,95508.00
2019-05-07T10:00:18.589Z,95501.00
2019-05-07T10:02:49.093Z,95506.00
2019-05-07T10:05:23.881Z,95496.00
2019-05-07T10:07:58.629Z,95510.00
2019-05-07T10:10:32.757Z,95491.00
2019-05-07T10:13:29.641Z,95501.00
2019-05-07T10:16:07.578Z,95494.00
2019-05-07T10:18:38.991Z,95497.00
2019-05-07T10:21:15.374Z,95495.00
2019-05-07T10:23:46.163Z,95500.00
2019-05-07T10:26:17.027Z,95497.00
2019-05-07T10:28:47.533Z,95497.00
2019-05-07T10:31:19.551Z,95483.00
2019-05-07T10:33:52.405Z,95488.00
2019-05-07T10:36:22.913Z,95483.00
2019-05-07T10:38:53.571Z,95485.00
2019-05-07T10:41:24.346Z,95492.00
2019-05-07T10:43:55.125Z,95486.00
2019-05-07T10:46:52.579Z,95482.00
2019-05-07T10:49:26.936Z,95477.00
2019-05-07T10:51:57.481Z,95473.00
2019-05-07T10:54:28.150Z,95473.00
2019-05-07T10:56:58.973Z,95465.00
2019-05-07T10:59:30.999Z,95469.00
2019-05-07T11:02:24.007Z,95459.00
2019-05-07T11:04:54.803Z,95463.00
2019-05-07T11:07:25.315Z,95463.00
2019-05-07T11:09:55.830Z,95458.00
2019-05-07T11:12:26.717Z,95449.00
2019-05-07T11:14:57.475Z,95450.00
2019-05-07T11:17:56.495Z,95444.00
2019-05-07T11:20:28.600Z,95440.00
2019-05-07T11:22:59.273Z,95433.00
2019-05-07T11:25:29.884Z,95437.00
2019-05-07T11:28:02.666Z,95430.00
2019-05-07T11:30:33.918Z,95430.00
2019-05-07T11:33:04.701Z,95425.00
2019-05-07T11:35:35.205Z,95421.00
2019-05-07T11:38:17.807Z,95422.00
2019-05-07T11:40:38.358Z,95409.00
2019-05-07T11:43:24.352Z,95406.00
2019-05-07T11:46:18.871Z,95410.00
2019-05-07T11:49:01.402Z,95397.00
2019-05-07T11:51:42.497Z,95402.00
2019-05-07T11:54:15.153Z,95388.00
2019-05-07T11:56:45.887Z,95383.00
2019-05-07T11:59:16.456Z,95386.00
2019-05-07T12:01:52.613Z,95375.00
2019-05-07T12:04:23.371Z,95366.00
2019-05-07T12:06:53.887Z,95370.00
2019-05-07T12:09:24.476Z,95373.00
2019-05-07T12:11:55.027Z,95374.00
2019-05-07T12:14:31.270Z,95375.00
2019-05-07T12:16:57.763Z,95371.00
2019-05-07T12:19:28.242Z,95370.00
2019-05-07T12:21:59.737Z,95370.00
2019-05-07T12:24:32.702Z,95369.00
2019-05-07T12:27:02.842Z,95368.00
2019-05-07T12:29:33.317Z,95361.00
2019-05-07T12:32:25.828Z,95353.00
2019-05-07T12:35:02.065Z,95355.00
2019-05-07T12:37:32.153Z,95351.00
2019-05-07T12:40:02.743Z,95348.00
2019-05-07T12:42:33.254Z,95346.00
2019-05-07T12:45:03.736Z,95338.00
2019-05-07T12:47:34.268Z,95330.00
2019-05-07T12:50:04.976Z,95338.00
2019-05-07T12:52:53.263Z,95332.00
2019-05-07T12:55:34.242Z,95330.00
2019-05-07T12:58:04.751Z,95326.00
2019-05-07T13:01:06.248Z,95320.00
2019-05-07T13:03:45.117Z,95324.00
2019-05-07T13:06:15.618Z,95324.00
2019-05-07T13:08:46.118Z,95330.00
2019-05-07T13:11:16.611Z,95315.00
2019-05-07T13:13:47.066Z,95307.00
2019-05-07T13:16:17.524Z,95310.00
2019-05-07T13:18:48.162Z,95307.00
2019-05-07T13:21:18.639Z,95306.00
2019-05-07T13:23:49.144Z,95302.00
2019-05-07T13:26:24.375Z,95307.00
2019-05-07T13:28:54.085Z,95300.00
2019-05-07T13:31:27.619Z,95313.00
2019-05-07T13:33:58.731Z,95305.00
2019-05-07T13:36:29.832Z,95314.00
2019-05-07T13:39:23.311Z,95308.00
2019-05-07T13:42:14.617Z,95311.00
2019-05-07T13:44:53.918Z,95313.00
2019-05-07T13:47:31.147Z,95299.00
2019-05-07T13:50:02.738Z,95303.00
2019-05-07T13:52:34.185Z,95293.00
2019-05-07T13:55:06.796Z,95293.00
2019-05-07T13:57:37.312Z,95296.00
2019-05-07T14:00:12.814Z,95288.00
2019-05-07T14:02:43.516Z,95284.00
2019-05-07T14:05:14.438Z,95283.00
2019-05-07T14:07:45.373Z,95277.00
2019-05-07T14:10:18.337Z,95285.00
2019-05-07T14:12:49.325Z,95283.00
2019-05-07T14:15:20.234Z,95282.00
2019-05-07T14:17:52.639Z,95271.00
2019-05-07T14:20:23.006Z,95278.00
2019-05-07T14:22:53.516Z,95279.00
2019-05-07T14:25:24.312Z,95274.00
2019-05-07T14:27:58.768Z,95270.00
2019-05-07T14:30:29.862Z,95275.00
2019-05-07T14:33:06.164Z,95266.00
2019-05-07T14:36:08.603Z,95262.00
2019-05-07T14:38:43.457Z,95259.00
2019-05-07T14:41:13.968Z,95260.00
2019-05-07T14:43:52.218Z,95261.00
2019-05-07T14:46:22.461Z,95251.00
2019-05-07T14:48:53.020Z,95252.00
2019-05-07T14:51:23.624Z,95263.00
2019-05-07T14:53:54.154Z,95262.00
2019-05-07T14:56:24.857Z,95255.00
2019-05-07T14:58:55.356Z,95247.00
2019-05-07T15:01:26.196Z,95252.00
2019-05-07T15:03:57.216Z,95247.00
2019-05-07T15:06:28.096Z,95244.00
2019-05-07T15:09:00.277Z,95253.00
2019-05-07T15:11:31.865Z,95254.00
2019-05-07T15:14:02.708Z,95264.00
2019-05-07T15:16:33.400Z,95264.00
2019-05-07T15:19:04.739Z,95261.00
2019-05-07T15:21:35.360Z,95261.00
2019-05-07T15:24:05.900Z,95263.00
2019-05-07T15:26:36.859Z,95265.00
2019-05-07T15:29:12.085Z,95268.00
2019-05-07T15:32:03.429Z,95265.00
2019-05-07T15:34:34.002Z,95267.00
2019-05-07T15:37:04.921Z,95263.00
2019-05-07T15:39:35.518Z,95272.00
2019-05-07T15:42:06.000Z,95273.00
2019-05-07T15:44:36.506Z,95269.00
2019-05-07T15:47:11.977Z,95265.00
2019-05-07T15:49:42.543Z,95262.00
2019-05-07T15:52:22.145Z,95262.00
2019-05-07T15:54:53.810Z,95251.00
2019-05-07T15:57:27.383Z,95262.00
2019-05-07T16:00:06.299Z,95259.00
2019-05-07T16:02:45.140Z,95254.00
2019-05-07T16:05:14.989Z,95261.00
2019-05-07T16:07:47.218Z,95259.00
2019-05-07T16:10:17.797Z,95251.00
2019-05-07T16:12:48.874Z,95252.00
2019-05-07T16:15:19.639Z,95248.00
2019-05-07T16:17:56.121Z,95243.00
2019-05-07T16:20:26.647Z,95251.00
2019-05-07T16:23:13.919Z,95243.00
2019-05-07T16:25:34.031Z,95243.00
2019-05-07T16:28:05.027Z,95250.00
2019-05-07T16:30:35.828Z,95246.00
2019-05-07T16:33:06.749Z,95250.00
2019-05-07T16:35:37.568Z,95244.00
2019-05-07T16:38:08.087Z,95240.00
2019-05-07T16:40:38.795Z,95245.00
2019-05-07T16:43:11.966Z,95253.00
2019-05-07T16:45:42.951Z,95244.00
2019-05-07T16:48:13.485Z,95254.00
2019-05-07T16:50:44.011Z,95242.00
2019-05-07T16:53:26.583Z,95242.00
2019-05-07T16:55:46.815Z,95241.00
2019-05-07T16:58:26.340Z,95249.00
2019-05-07T17:01:01.808Z,95241.00
2019-05-07T17:03:43.072Z,95238.00
2019-05-07T17:06:14.401Z,95244.00
2019-05-07T17:08:55.549Z,95239.00
2019-05-07T17:11:27.897Z,95238.00
2019-05-07T17:14:02.351Z,95236.00
2019-05-07T17:16:33.276Z,95224.00
2019-05-07T17:19:04.398Z,95240.00
2019-05-07T17:21:34.857Z,95226.00
2019-05-07T17:24:05.330Z,95232.00
2019-05-07T17:26:35.843Z,95236.00
2019-05-07T17:29:07.827Z,95234.00
2019-05-07T17:31:38.303Z,95230.00
2019-05-07T17:34:08.837Z,95233.00
2019-05-07T17:36:39.507Z,95228.00
2019-05-07T17:39:12.356Z,95233.00
2019-05-07T17:41:44.196Z,95242.00
2019-05-07T17:44:14.912Z,95237.00
2019-05-07T17:46:46.775Z,95234.00
2019-05-07T17:49:18.715Z,95218.00
2019-05-07T17:51:52.651Z,95222.00
2019-05-07T17:54:31.881Z,95224.00
2019-05-07T17:57:02.777Z,95223.00
2019-05-07T17:59:57.300Z,95224.00
2019-05-07T18:02:38.455Z,95235.00
2019-05-07T18:05:11.809Z,95222.00
2019-05-07T18:07:42.203Z,95237.00
2019-05-07T18:10:15.499Z,95233.00
2019-05-07T18:12:51.136Z,95228.00
2019-05-07T18:15:25.526Z,95225.00
2019-05-07T18:18:03.980Z,95227.00
2019-05-07T18:23:23.271Z,95221.00
2019-05-07T18:25:59.285Z,95218.00
2019-05-07T18:28:38.598Z,95220.00
2019-05-07T18:31:22.261Z,95221.00
2019-05-07T18:33:59.797Z,95215.00
2019-05-07T18:36:42.203Z,95221.00
2019-05-07T18:39:22.641Z,95216.00
2019-05-07T18:42:06.543Z,95210.00
2019-05-07T18:44:38.132Z,95215.00
2019-05-07T18:47:12.920Z,95216.00
2019-05-07T18:49:48.182Z,95214.00
2019-05-07T18:52:22.817Z,95212.00
2019-05-07T18:54:56.616Z,95218.00
2019-05-07T18:57:32.672Z,95218.00
2019-05-07T19:00:08.167Z,95225.00
2019-05-07T19:02:42.690Z,95223.00
2019-05-07T19:05:24.553Z,95224.00
2019-05-07T19:08:05.336Z,95225.00
2019-05-07T19:10:42.899Z,95223.00
2019-05-07T19:13:15.880Z,95221.00
2019-05-07T19:15:48.285Z,95233.00
2019-05-07T19:18:23.673Z,95227.00
2019-05-07T19:20:59.119Z,95228.00
2019-05-07T19:23:42.483Z,95233.00
2019-05-07T19:26:18.425Z,95233.00
2019-05-07T19:28:50.397Z,95223.00
2019-05-07T19:31:22.048Z,95213.00
2019-05-07T19:33:53.899Z,95225.00
2019-05-07T19:36:32.088Z,95219.00
2019-05-07T19:39:04.155Z,95213.00
2019-05-07T19:41:49.237Z,95211.00
2019-05-07T19:44:44.953Z,95210.00
2019-05-07T19:47:16.548Z,95209.00
2019-05-07T19:49:52.700Z,95198.00
2019-05-07T19:52:29.280Z,95214.00
2019-05-07T19:55:04.812Z,95211.00
2019-05-07T19:57:45.804Z,95217.00
2019-05-07T20:00:18.762Z,95210.00
2019-05-07T20:02:59.102Z,95207.00
2019-05-07T20:05:32.167Z,95221.00
2019-05-07T20:08:12.004Z,95220.00
2019-05-07T20:10:52.043Z,95221.00
2019-05-07T20:13:28.779Z,95218.00
2019-05-07T20:16:33.894Z,95213.00
2019-05-07T20:19:23.063Z,95212.00
2019-05-07T20:21:55.289Z,95202.00
2019-05-07T20:24:27.163Z,95202.00
2019-05-07T20:26:58.401Z,95196.00
2019-05-07T20:29:32.315Z,95197.00
2019-05-07T20:32:06.558Z,95207.00
2019-05-07T20:34:38.477Z,95193.00
2019-05-07T20:37:12.737Z,95192.00
2019-05-07T20:39:45.410Z,95195.00
2019-05-07T20:42:16.273Z,95187.00
2019-05-07T20:44:46.902Z,95187.00
2019-05-07T20:47:18.676Z,95195.00
2019-05-07T20:49:50.495Z,95179.00
2019-05-07T20:52:22.913Z,95190.00
2019-05-07T20:55:12.905Z,95194.00
2019-05-07T20:57:45.898Z,95189.00
2019-05-07T21:00:24.995Z,95192.00
2019-05-07T21:03:14.722Z,95189.00
2019-05-07T21:05:49.023Z,95180.00
2019-05-07T21:08:19.863Z,95188.00
2019-05-07T21:10:53.253Z,95190.00
2019-05-07T21:13:31.022Z,95192.00
2019-05-07T21:15:55.608Z,95191.00
2019-05-07T21:18:27.661Z,95189.00
2019-05-07T21:20:58.145Z,95184.00
2019-05-07T21:23:29.172Z,95189.00
2019-05-07T21:26:01.959Z,95185.00
2019-05-07T21:28:32.495Z,95180.00
2019-05-07T21:31:04.063Z,95182.00
2019-05-07T21:33:35.827Z,95176.00
2019-05-07T21:36:07.737Z,95180.00
2019-05-07T21:38:38.307Z,95175.00
2019-05-07T21:41:09.116Z,95173.00
2019-05-07T21:43:43.088Z,95168.00
2019-05-07T21:46:12.983Z,95160.00
2019-05-07T21:48:43.692Z,95164.00
2019-05-07T21:51:16.402Z,95165.00
2019-05-07T21:54:03.530Z,95168.00
2019-05-07T21:57:02.137Z,95155.00
2019-05-07T21:59:35.739Z,95160.00
2019-05-07T22:02:13.273Z,95168.00
2019-05-07T22:04:43.798Z,95167.00
2019-05-07T22:07:14.458Z,95165.00
2019-05-07T22:09:45.100Z,95167.00
2019-05-07T22:12:15.656Z,95169.00
2019-05-07T22:14:47.091Z,95165.00
2019-05-07T22:17:17.580Z,95159.00
2019-05-07T22:19:48.139Z,95153.00
2019-05-07T22:22:18.698Z,95153.00
2019-05-07T22:24:49.535Z,95147.00
2019-05-07T22:27:22.097Z,95148.00
2019-05-07T22:29:52.828Z,95149.00
2019-05-07T22:32:33.962Z,95141.00
2019-05-07T22:35:27.808Z,95137.00
2019-05-07T22:37:58.282Z,95134.00
2019-05-07T22:40:28.900Z,95131.00
2019-05-07T22:43:02.158Z,95131.00
2019-05-07T22:45:32.799Z,95135.00
2019-05-07T22:48:03.271Z,95123.00
2019-05-07T22:50:33.797Z,95122.00
2019-05-07T22:53:04.445Z,95125.00
2019-05-07T22:55:34.938Z,95119.00
2019-05-07T22:58:13.997Z,95120.00
2019-05-07T23:00:49.624Z,95121.00
2019-05-07T23:03:20.086Z,95125.00
2019-05-07T23:05:52.336Z,95128.00
2019-05-07T23:08:22.933Z,95127.00
2019-05-07T23:10:53.484Z,95114.00
2019-05-07T23:13:24.006Z,95122.00
2019-05-07T23:15:54.477Z,95110.00
2019-05-07T23:18:24.971Z,95119.00
2019-05-07T23:20:55.557Z,95117.00
2019-05-07T23:23:26.055Z,95118.00
2019-05-07T23:25:56.524Z,95118.00
2019-05-07T23:28:28.876Z,95118.00
2019-05-07T23:30:59.276Z,95117.00
2019-05-07T23:33:31.940Z,95118.00
2019-05-07T23:36:02.303Z,95111.00
2019-05-07T23:38:32.922Z,95107.00
2019-05-07T23:41:16.719Z,95101.00
2019-05-07T23:44:06.133Z,95106.00
2019-05-07T23:46:36.620Z,95102.00
2019-05-07T23:49:07.138Z,95096.00
2019-05-07T23:51:37.703Z,95099.00
2019-05-07T23:54:08.579Z,95086.00
2019-05-07T23:56:39.127Z,95088.00
2019-05-07T23:59:09.674Z,95082.00
